Randolph, Kansas
Current Conditions -  °F | °C
As of 10:52 PM on Thursday 30 Oct 2014 (Local Time) from KMHK Reporting Station
Clear Clear  
Wind Chill: 50°   Ceiling: Unl
Heat Index: 50°   Visibility: 10mi
Dew Point: 38°   Wind: 13mph
Humidity: 63%   Direction: 360°N
Pressure: 30.3"   Gusts: 22mph
Location:  39.43°N, 96.76°W
Report Text: KMHK 310352Z AUTO 36011G19KT 10SM CLR 10/03 A3030 RMK AO2 SLP259 T01000033 TSNO
Loading
Personal Weather Stations






























Interactive Weather Map
Tropical Storm Tracking
New forecast layout! Learn more

10-Day Weather Forecast

Advertisements
Track Severe Weather on mobile